createdAt,value
2019-05-22T00:00:18.305Z,12.35
2019-05-22T00:02:47.820Z,11.40
2019-05-22T00:05:17.936Z,13.70
2019-05-22T00:07:47.981Z,14.18
2019-05-22T00:10:19.552Z,15.98
2019-05-22T00:12:49.379Z,17.02
2019-05-22T00:15:18.778Z,16.82
2019-05-22T00:17:49.250Z,17.42
2019-05-22T00:20:20.212Z,19.48
2019-05-22T00:22:51.080Z,20.10
2019-05-22T00:25:24.251Z,20.35
2019-05-22T00:27:56.182Z,22.77
2019-05-22T00:30:28.944Z,23.85
2019-05-22T00:33:00.430Z,23.70
2019-05-22T00:35:29.252Z,25.75
2019-05-22T00:37:57.895Z,24.77
2019-05-22T00:40:28.885Z,25.40
2019-05-22T00:43:04.078Z,25.85
2019-05-22T00:45:31.312Z,25.92
2019-05-22T00:48:00.335Z,27.07
2019-05-22T00:50:33.217Z,27.00
2019-05-22T00:53:05.064Z,28.90
2019-05-22T00:55:47.410Z,28.75
2019-05-22T00:58:21.404Z,28.10
2019-05-22T01:00:54.214Z,27.95
2019-05-22T01:03:24.782Z,29.77
2019-05-22T01:05:54.962Z,28.52
2019-05-22T01:08:25.885Z,27.17
2019-05-22T01:10:56.200Z,26.20
2019-05-22T01:13:27.393Z,27.93
2019-05-22T01:15:58.104Z,25.85
2019-05-22T01:18:28.295Z,25.90
2019-05-22T01:20:59.683Z,25.80
2019-05-22T01:23:30.375Z,24.52
2019-05-22T01:26:01.191Z,24.07
2019-05-22T01:28:30.190Z,23.65
2019-05-22T01:31:00.730Z,24.77
2019-05-22T01:33:35.220Z,25.17
2019-05-22T01:36:05.942Z,23.40
2019-05-22T01:38:35.900Z,22.82
2019-05-22T01:41:11.558Z,23.85
2019-05-22T01:43:40.117Z,22.93
2019-05-22T01:46:09.739Z,23.73
2019-05-22T01:48:40.475Z,24.12
2019-05-22T01:51:11.289Z,23.47
2019-05-22T01:53:44.277Z,24.00
2019-05-22T01:56:13.720Z,23.95
2019-05-22T01:58:45.520Z,24.65
2019-05-22T02:01:20.582Z,25.30
2019-05-22T02:03:50.705Z,25.70
2019-05-22T02:06:21.823Z,24.85
2019-05-22T02:08:53.258Z,24.40
2019-05-22T02:11:23.400Z,25.43
2019-05-22T02:13:55.083Z,24.75
2019-05-22T02:16:24.338Z,23.83
2019-05-22T02:18:53.866Z,24.32
2019-05-22T02:21:23.810Z,25.25
2019-05-22T02:23:52.658Z,25.75
2019-05-22T02:26:22.306Z,24.40
2019-05-22T02:28:50.848Z,24.92
2019-05-22T02:31:23.581Z,25.97
2019-05-22T02:34:02.892Z,24.98
2019-05-22T02:36:33.000Z,25.52
2019-05-22T02:39:01.491Z,23.83
2019-05-22T02:41:34.703Z,24.65
2019-05-22T02:44:03.398Z,25.02
2019-05-22T02:46:32.039Z,25.52
2019-05-22T02:49:01.967Z,26.52
2019-05-22T02:51:30.845Z,24.90
2019-05-22T02:54:00.272Z,25.92
2019-05-22T02:56:29.219Z,23.40
2019-05-22T02:58:57.773Z,22.30
2019-05-22T03:01:27.225Z,22.70
2019-05-22T03:03:55.784Z,22.30
2019-05-22T03:06:24.470Z,23.70
2019-05-22T03:08:59.645Z,25.05
2019-05-22T03:11:32.875Z,25.05
2019-05-22T03:14:03.485Z,26.23
2019-05-22T03:16:36.249Z,25.62
2019-05-22T03:19:08.798Z,24.80
2019-05-22T03:21:36.745Z,26.90
2019-05-22T03:24:05.699Z,26.67
2019-05-22T03:26:43.568Z,27.02
2019-05-22T03:29:15.442Z,32.45
2019-05-22T03:31:45.162Z,32.17
2019-05-22T03:34:14.331Z,33.83
2019-05-22T03:36:43.425Z,33.05
2019-05-22T03:39:12.674Z,32.83
2019-05-22T03:41:41.827Z,34.05
2019-05-22T03:44:11.638Z,33.75
2019-05-22T03:46:44.506Z,35.52
2019-05-22T03:49:28.948Z,35.15
2019-05-22T03:51:49.339Z,34.58
2019-05-22T03:54:19.715Z,33.35
2019-05-22T03:56:49.429Z,32.23
2019-05-22T03:59:17.935Z,31.48
2019-05-22T04:01:46.652Z,28.17
2019-05-22T04:04:18.196Z,26.70
2019-05-22T04:06:48.112Z,27.62
2019-05-22T04:09:20.234Z,27.10
2019-05-22T04:11:49.755Z,24.20
2019-05-22T04:14:19.522Z,23.18
2019-05-22T04:16:48.921Z,22.45
2019-05-22T04:19:17.611Z,24.92
2019-05-22T04:21:46.731Z,23.52
2019-05-22T04:24:15.679Z,20.30
2019-05-22T04:26:44.156Z,19.48
2019-05-22T04:29:14.246Z,18.95
2019-05-22T04:31:58.448Z,19.35
2019-05-22T04:34:27.587Z,20.72
2019-05-22T04:36:56.210Z,21.15
2019-05-22T04:39:27.380Z,21.23
2019-05-22T04:41:58.927Z,21.95
2019-05-22T04:44:28.051Z,21.87
2019-05-22T04:46:57.141Z,22.45
2019-05-22T04:49:26.030Z,20.95
2019-05-22T04:51:54.753Z,23.05
2019-05-22T04:54:23.839Z,22.32
2019-05-22T04:56:53.521Z,22.60
2019-05-22T04:59:22.130Z,22.02
2019-05-22T05:01:51.056Z,22.50
2019-05-22T05:04:19.796Z,24.98
2019-05-22T05:06:49.885Z,24.45
2019-05-22T05:09:18.948Z,27.60
2019-05-22T05:11:47.599Z,26.85
2019-05-22T05:14:16.248Z,26.80
2019-05-22T05:16:44.814Z,31.85
2019-05-22T05:19:13.470Z,34.80
2019-05-22T05:21:42.168Z,34.30
2019-05-22T05:24:10.916Z,33.90
2019-05-22T05:26:40.260Z,32.90
2019-05-22T05:29:12.477Z,33.23
2019-05-22T05:31:41.357Z,32.88
2019-05-22T05:34:30.963Z,31.12
2019-05-22T05:37:02.091Z,29.85
2019-05-22T05:39:40.249Z,26.62
2019-05-22T05:42:09.084Z,27.25
2019-05-22T05:44:37.642Z,26.77
2019-05-22T05:47:07.481Z,25.65
2019-05-22T05:49:36.045Z,25.45
2019-05-22T05:52:06.298Z,26.53
2019-05-22T05:54:35.330Z,26.23
2019-05-22T05:57:29.898Z,26.00
2019-05-22T05:59:58.570Z,23.73
2019-05-22T06:02:27.725Z,25.17
2019-05-22T06:04:56.272Z,23.27
2019-05-22T06:07:25.026Z,21.95
2019-05-22T06:10:13.256Z,21.68
2019-05-22T06:12:42.083Z,21.73
2019-05-22T06:15:10.645Z,22.50
2019-05-22T06:18:07.716Z,22.48
2019-05-22T06:20:36.967Z,20.85
2019-05-22T06:23:26.349Z,20.33
2019-05-22T06:25:57.169Z,19.87
2019-05-22T06:28:28.467Z,17.47
2019-05-22T06:31:02.379Z,16.45
2019-05-22T06:33:35.038Z,16.63
2019-05-22T06:36:07.433Z,15.43
2019-05-22T06:38:41.922Z,15.53
2019-05-22T06:41:12.687Z,15.03
2019-05-22T06:43:47.372Z,14.90
2019-05-22T06:46:18.938Z,13.73
2019-05-22T06:48:47.540Z,12.43
2019-05-22T06:51:19.380Z,11.18
2019-05-22T06:53:46.407Z,10.80
2019-05-22T06:56:14.918Z,10.65
2019-05-22T06:58:43.527Z,9.80
2019-05-22T07:01:12.274Z,11.57
2019-05-22T07:03:41.221Z,10.53
2019-05-22T07:06:09.908Z,10.47
2019-05-22T07:08:38.387Z,11.43
2019-05-22T07:11:08.526Z,11.43
2019-05-22T07:13:37.364Z,10.32
2019-05-22T07:16:06.384Z,10.75
2019-05-22T07:18:34.894Z,10.35
2019-05-22T07:21:03.486Z,10.40
2019-05-22T07:23:33.606Z,10.67
2019-05-22T07:26:03.409Z,10.03
2019-05-22T07:28:33.351Z,9.50
2019-05-22T07:31:02.871Z,10.27
2019-05-22T07:33:32.535Z,9.80
2019-05-22T07:36:12.065Z,11.80
2019-05-22T07:38:32.434Z,10.90
2019-05-22T07:41:01.149Z,9.93
2019-05-22T07:43:29.723Z,9.00
2019-05-22T07:45:59.575Z,8.93
2019-05-22T07:48:28.997Z,7.90
2019-05-22T07:50:58.221Z,8.15
2019-05-22T07:53:27.239Z,8.28
2019-05-22T07:55:57.746Z,9.35
2019-05-22T07:58:28.554Z,8.60
2019-05-22T08:00:58.786Z,7.53
2019-05-22T08:03:28.581Z,6.90
2019-05-22T08:05:58.571Z,7.00
2019-05-22T08:08:27.799Z,6.08
2019-05-22T08:10:57.990Z,6.03
2019-05-22T08:13:27.193Z,5.97
2019-05-22T08:15:55.942Z,6.53
2019-05-22T08:18:25.984Z,6.40
2019-05-22T08:20:54.465Z,4.90
2019-05-22T08:23:23.422Z,4.75
2019-05-22T08:25:52.224Z,5.08
2019-05-22T08:28:21.450Z,4.78
2019-05-22T08:30:50.367Z,5.60
2019-05-22T08:33:20.781Z,5.12
2019-05-22T08:35:49.583Z,6.12
2019-05-22T08:38:18.592Z,6.07
2019-05-22T08:40:48.787Z,6.78
2019-05-22T08:43:17.786Z,6.83
2019-05-22T08:45:46.815Z,8.30
2019-05-22T08:48:16.734Z,8.70
2019-05-22T08:50:45.809Z,9.03
2019-05-22T08:53:16.265Z,8.80
2019-05-22T08:55:45.412Z,8.63
2019-05-22T08:58:16.613Z,8.83
2019-05-22T09:00:46.086Z,8.23
2019-05-22T09:03:15.578Z,7.90
2019-05-22T09:05:44.392Z,7.77
2019-05-22T09:08:13.017Z,7.80
2019-05-22T09:10:41.962Z,8.13
2019-05-22T09:13:10.492Z,8.10
2019-05-22T09:15:40.321Z,8.03
2019-05-22T09:18:09.309Z,8.07
2019-05-22T09:20:48.680Z,6.17
2019-05-22T09:23:09.635Z,7.37
2019-05-22T09:25:38.487Z,8.23
2019-05-22T09:28:07.246Z,7.80
2019-05-22T09:30:36.394Z,8.43
2019-05-22T09:33:05.606Z,8.70
2019-05-22T09:35:34.602Z,8.10
2019-05-22T09:38:03.266Z,8.30
2019-05-22T09:40:32.875Z,8.53
2019-05-22T09:43:02.351Z,8.70
2019-05-22T09:45:31.491Z,10.20
2019-05-22T09:48:00.215Z,9.17
2019-05-22T09:50:29.205Z,9.70
2019-05-22T09:52:58.464Z,8.37
2019-05-22T09:55:27.058Z,7.15
2019-05-22T09:57:55.840Z,7.17
2019-05-22T10:00:25.851Z,6.70
2019-05-22T10:02:54.610Z,7.15
2019-05-22T10:05:23.090Z,6.70
2019-05-22T10:08:00.577Z,7.03
2019-05-22T10:10:22.534Z,6.70
2019-05-22T10:12:51.582Z,6.97
2019-05-22T10:15:21.055Z,7.22
2019-05-22T10:17:50.185Z,6.40
2019-05-22T10:20:20.965Z,7.27
2019-05-22T10:22:49.683Z,5.78
2019-05-22T10:25:18.558Z,5.40
2019-05-22T10:27:48.355Z,4.63
2019-05-22T10:30:20.794Z,4.70
2019-05-22T10:32:50.150Z,4.97
2019-05-22T10:35:22.331Z,4.60
2019-05-22T10:37:51.086Z,5.08
2019-05-22T10:40:20.685Z,4.40
2019-05-22T10:42:49.328Z,4.97
2019-05-22T10:45:18.043Z,4.40
2019-05-22T10:47:48.062Z,4.87
2019-05-22T10:50:16.674Z,4.85
2019-05-22T10:52:45.179Z,4.50
2019-05-22T10:55:14.361Z,5.10
2019-05-22T10:57:44.585Z,5.58
2019-05-22T11:00:16.029Z,5.80
2019-05-22T11:02:44.889Z,6.17
2019-05-22T11:05:13.899Z,6.37
2019-05-22T11:07:42.834Z,6.87
2019-05-22T11:10:12.465Z,7.00
2019-05-22T11:12:41.177Z,7.87
2019-05-22T11:15:11.262Z,7.17
2019-05-22T11:17:39.904Z,7.97
2019-05-22T11:20:09.925Z,7.40
2019-05-22T11:22:38.732Z,7.93
2019-05-22T11:25:11.125Z,8.03
2019-05-22T11:27:40.555Z,7.07
2019-05-22T11:30:14.973Z,7.53
2019-05-22T11:32:44.064Z,8.33
2019-05-22T11:35:14.083Z,6.37
2019-05-22T11:37:42.831Z,7.10
2019-05-22T11:40:11.869Z,7.77
2019-05-22T11:42:40.425Z,7.73
2019-05-22T11:45:12.147Z,7.50
2019-05-22T11:47:41.958Z,7.30
2019-05-22T11:50:12.576Z,7.20
2019-05-22T11:52:42.056Z,6.75
2019-05-22T11:55:12.988Z,7.40
2019-05-22T11:57:42.905Z,7.63
2019-05-22T12:00:12.651Z,7.43
2019-05-22T12:02:41.198Z,7.12
2019-05-22T12:05:10.691Z,7.15
2019-05-22T12:07:41.771Z,6.37
2019-05-22T12:10:11.666Z,7.10
2019-05-22T12:12:40.478Z,6.23
2019-05-22T12:15:11.805Z,6.37
2019-05-22T12:17:40.594Z,6.63
2019-05-22T12:20:11.011Z,7.47
2019-05-22T12:22:39.686Z,8.10
2019-05-22T12:25:10.635Z,9.43
2019-05-22T12:27:39.195Z,11.70
2019-05-22T12:30:08.444Z,13.10
2019-05-22T12:32:38.098Z,12.47
2019-05-22T12:35:07.716Z,13.43
2019-05-22T12:37:36.486Z,12.17
2019-05-22T12:40:07.804Z,12.03
2019-05-22T12:42:36.700Z,11.30
2019-05-22T12:45:07.295Z,10.80
2019-05-22T12:47:36.084Z,10.53
2019-05-22T12:50:07.199Z,9.87
2019-05-22T12:52:35.919Z,9.70
2019-05-22T12:55:06.848Z,9.60
2019-05-22T12:57:35.586Z,9.57
2019-05-22T13:00:07.499Z,9.67
2019-05-22T13:02:42.232Z,10.83
2019-05-22T13:05:14.537Z,8.83
2019-05-22T13:07:42.299Z,8.87
2019-05-22T13:10:11.169Z,8.67
2019-05-22T13:12:39.985Z,7.87
2019-05-22T13:15:10.967Z,8.43
2019-05-22T13:17:40.947Z,9.07
2019-05-22T13:20:12.592Z,9.40
2019-05-22T13:22:47.728Z,9.27
2019-05-22T13:25:18.855Z,9.53
2019-05-22T13:27:48.704Z,9.90
2019-05-22T13:30:19.092Z,8.80
2019-05-22T13:32:48.926Z,10.37
2019-05-22T13:35:17.766Z,9.90
2019-05-22T13:37:46.379Z,12.37
2019-05-22T13:40:26.992Z,9.20
2019-05-22T13:42:45.426Z,9.37
2019-05-22T13:45:28.379Z,9.17
2019-05-22T13:47:45.484Z,9.40
2019-05-22T13:50:16.136Z,9.33
2019-05-22T13:52:44.949Z,10.27
2019-05-22T13:55:13.792Z,10.37
2019-05-22T13:57:42.747Z,9.87
2019-05-22T14:00:15.954Z,10.00
2019-05-22T14:02:44.504Z,10.13
2019-05-22T14:05:14.026Z,8.57
2019-05-22T14:07:42.601Z,9.30
2019-05-22T14:10:11.432Z,9.33
2019-05-22T14:12:39.912Z,9.20
2019-05-22T14:15:08.970Z,9.77
2019-05-22T14:17:37.866Z,10.30
2019-05-22T14:20:08.952Z,9.13
2019-05-22T14:22:37.671Z,8.80
2019-05-22T14:25:08.488Z,9.53
2019-05-22T14:27:41.330Z,7.73
2019-05-22T14:30:08.296Z,8.23
2019-05-22T14:32:37.438Z,8.43
2019-05-22T14:35:06.674Z,9.33
2019-05-22T14:37:35.885Z,8.27
2019-05-22T14:40:07.374Z,9.30
2019-05-22T14:42:36.013Z,9.33
2019-05-22T14:45:06.149Z,9.30
2019-05-22T14:47:34.640Z,8.60
2019-05-22T14:50:03.656Z,8.63
2019-05-22T14:52:32.729Z,8.50
2019-05-22T14:55:01.391Z,9.07
2019-05-22T14:57:30.045Z,8.83
2019-05-22T14:59:58.992Z,8.40
2019-05-22T15:02:28.610Z,8.77
2019-05-22T15:04:58.241Z,8.13
2019-05-22T15:07:26.797Z,8.47
2019-05-22T15:09:55.331Z,8.00
2019-05-22T15:12:23.973Z,7.77
2019-05-22T15:14:52.917Z,8.53
2019-05-22T15:17:32.321Z,8.30
2019-05-22T15:19:52.280Z,7.83
2019-05-22T15:22:20.951Z,7.10
2019-05-22T15:24:49.772Z,8.00
2019-05-22T15:27:19.061Z,7.47
2019-05-22T15:29:47.553Z,7.50
2019-05-22T15:32:17.547Z,8.03
2019-05-22T15:34:46.969Z,7.50
2019-05-22T15:37:18.615Z,7.37
2019-05-22T15:39:48.235Z,7.33
2019-05-22T15:42:40.622Z,8.43
2019-05-22T15:45:12.250Z,8.20
2019-05-22T15:47:54.867Z,7.50
2019-05-22T15:50:15.775Z,7.43
2019-05-22T15:52:48.429Z,6.90
2019-05-22T15:55:19.445Z,8.10
2019-05-22T15:57:48.012Z,6.93
2019-05-22T16:00:19.407Z,7.07
2019-05-22T16:02:49.631Z,7.20
2019-05-22T16:05:19.528Z,7.40
2019-05-22T16:07:50.319Z,7.60
2019-05-22T16:10:22.718Z,8.37
2019-05-22T16:12:52.964Z,8.90
2019-05-22T16:15:25.134Z,8.13
2019-05-22T16:18:10.597Z,7.73
2019-05-22T16:20:27.244Z,7.73
2019-05-22T16:22:56.825Z,8.63
2019-05-22T16:25:26.361Z,8.40
2019-05-22T16:27:56.043Z,9.13
2019-05-22T16:30:26.288Z,8.27
2019-05-22T16:32:56.410Z,8.40
2019-05-22T16:35:26.129Z,7.70
2019-05-22T16:37:55.071Z,8.90
2019-05-22T16:40:24.122Z,7.97
2019-05-22T16:42:53.449Z,9.37
2019-05-22T16:45:23.935Z,9.60
2019-05-22T16:47:53.994Z,9.23
2019-05-22T16:50:24.973Z,8.03
2019-05-22T16:52:54.463Z,8.50
2019-05-22T16:55:24.970Z,8.20
2019-05-22T16:57:54.758Z,8.50
2019-05-22T17:00:23.870Z,9.10
2019-05-22T17:02:52.787Z,9.03
2019-05-22T17:05:22.544Z,10.07
2019-05-22T17:07:51.597Z,10.13
2019-05-22T17:10:21.205Z,10.90
2019-05-22T17:12:49.867Z,11.93
2019-05-22T17:15:19.489Z,10.53
2019-05-22T17:17:48.698Z,10.83
2019-05-22T17:20:19.781Z,10.87
2019-05-22T17:22:48.404Z,11.33
2019-05-22T17:25:20.118Z,11.13
2019-05-22T17:27:49.422Z,11.17
2019-05-22T17:30:21.435Z,11.30
2019-05-22T17:32:50.061Z,11.30
2019-05-22T17:35:20.290Z,11.67
2019-05-22T17:37:49.304Z,12.90
2019-05-22T17:40:20.416Z,13.93
2019-05-22T17:42:51.075Z,14.20
2019-05-22T17:45:21.169Z,13.27
2019-05-22T17:47:51.050Z,13.53
2019-05-22T17:50:26.804Z,13.73
2019-05-22T17:52:50.692Z,14.00
2019-05-22T17:55:21.217Z,14.27
2019-05-22T17:57:49.838Z,13.07
2019-05-22T18:00:25.387Z,14.77
2019-05-22T18:02:53.866Z,14.23
2019-05-22T18:05:22.928Z,14.17
2019-05-22T18:07:51.397Z,13.70
2019-05-22T18:10:20.412Z,13.37
2019-05-22T18:12:49.065Z,11.97
2019-05-22T18:15:19.504Z,12.57
2019-05-22T18:17:48.789Z,13.37
2019-05-22T18:20:18.805Z,13.30
2019-05-22T18:22:47.625Z,14.53
2019-05-22T18:25:16.844Z,14.47
2019-05-22T18:27:45.956Z,15.00
2019-05-22T18:30:14.703Z,15.80
2019-05-22T18:32:43.519Z,15.60
2019-05-22T18:35:13.435Z,15.37
2019-05-22T18:37:42.014Z,16.43
2019-05-22T18:40:11.502Z,14.70
2019-05-22T18:42:40.095Z,14.57
2019-05-22T18:45:08.800Z,14.80
2019-05-22T18:47:37.381Z,14.90
2019-05-22T18:50:07.702Z,14.33
2019-05-22T18:52:41.181Z,14.37
2019-05-22T18:55:08.554Z,14.17
2019-05-22T18:57:37.764Z,14.07
2019-05-22T19:00:08.061Z,12.90
2019-05-22T19:02:36.875Z,12.77
2019-05-22T19:05:07.074Z,11.40
2019-05-22T19:07:35.738Z,10.83
2019-05-22T19:10:07.164Z,10.10
2019-05-22T19:12:35.911Z,9.50
2019-05-22T19:15:08.909Z,10.70
2019-05-22T19:17:37.487Z,10.40
2019-05-22T19:20:09.365Z,9.97
2019-05-22T19:22:38.777Z,9.10
2019-05-22T19:25:07.689Z,10.00
2019-05-22T19:27:36.429Z,10.70
2019-05-22T19:30:06.344Z,10.60
2019-05-22T19:32:35.400Z,10.13
2019-05-22T19:35:05.130Z,11.27
2019-05-22T19:37:33.648Z,11.20
2019-05-22T19:40:02.292Z,10.47
2019-05-22T19:42:31.035Z,10.50
2019-05-22T19:44:59.523Z,11.33
2019-05-22T19:47:28.377Z,11.53
2019-05-22T19:49:57.153Z,11.07
2019-05-22T19:52:40.466Z,11.80
2019-05-22T19:54:56.784Z,11.80
2019-05-22T19:57:25.287Z,11.97
2019-05-22T19:59:53.768Z,12.13
2019-05-22T20:02:23.119Z,11.93
2019-05-22T20:04:52.219Z,11.97
2019-05-22T20:07:21.424Z,12.83
2019-05-22T20:09:50.460Z,14.00
2019-05-22T20:12:19.846Z,13.97
2019-05-22T20:14:48.490Z,13.87
2019-05-22T20:17:16.998Z,14.37
2019-05-22T20:19:46.108Z,14.90
2019-05-22T20:22:15.234Z,16.50
2019-05-22T20:24:43.963Z,15.67
2019-05-22T20:27:12.942Z,14.37
2019-05-22T20:29:41.821Z,13.67
2019-05-22T20:32:13.434Z,14.83
2019-05-22T20:34:42.534Z,15.13
2019-05-22T20:37:11.379Z,15.60
2019-05-22T20:39:39.923Z,15.67
2019-05-22T20:42:09.176Z,16.33
2019-05-22T20:44:39.167Z,14.60
2019-05-22T20:47:10.548Z,14.90
2019-05-22T20:49:41.986Z,15.70
2019-05-22T20:52:11.833Z,13.37
2019-05-22T20:54:40.955Z,14.30
2019-05-22T20:57:11.950Z,16.10
2019-05-22T20:59:42.048Z,15.60
2019-05-22T21:02:12.457Z,16.60
2019-05-22T21:04:43.551Z,14.07
2019-05-22T21:07:14.029Z,15.83
2019-05-22T21:09:44.282Z,14.70
2019-05-22T21:12:14.309Z,13.57
2019-05-22T21:14:42.956Z,13.63
2019-05-22T21:17:11.843Z,14.27
2019-05-22T21:19:42.064Z,13.57
2019-05-22T21:22:12.114Z,13.57
2019-05-22T21:24:41.028Z,12.40
2019-05-22T21:27:10.620Z,12.23
2019-05-22T21:29:39.485Z,12.10
2019-05-22T21:32:08.493Z,12.67
2019-05-22T21:34:38.069Z,12.63
2019-05-22T21:37:07.773Z,13.37
2019-05-22T21:39:37.018Z,12.97
2019-05-22T21:42:06.186Z,13.63
2019-05-22T21:44:35.031Z,13.90
2019-05-22T21:47:05.218Z,13.40
2019-05-22T21:49:33.893Z,12.63
2019-05-22T21:52:05.251Z,14.27
2019-05-22T21:54:33.990Z,13.80
2019-05-22T21:57:02.470Z,14.60
2019-05-22T21:59:31.117Z,14.50
2019-05-22T22:02:03.090Z,14.23
2019-05-22T22:04:33.302Z,13.37
2019-05-22T22:07:03.890Z,14.20
2019-05-22T22:09:32.541Z,14.03
2019-05-22T22:12:01.102Z,13.17
2019-05-22T22:14:31.414Z,13.23
2019-05-22T22:17:00.731Z,13.40
2019-05-22T22:19:29.773Z,13.07
2019-05-22T22:21:58.797Z,13.87
2019-05-22T22:24:27.951Z,14.63
2019-05-22T22:26:57.761Z,13.60
2019-05-22T22:29:27.739Z,13.50
2019-05-22T22:31:58.146Z,12.67
2019-05-22T22:34:30.667Z,13.47
2019-05-22T22:36:59.212Z,13.20
2019-05-22T22:39:30.131Z,12.93
2019-05-22T22:42:00.716Z,13.40
2019-05-22T22:44:29.561Z,13.77
2019-05-22T22:47:01.223Z,13.60
2019-05-22T22:49:30.174Z,12.90
2019-05-22T22:51:59.460Z,13.50
2019-05-22T22:54:28.804Z,15.17
2019-05-22T22:56:57.511Z,13.90
2019-05-22T22:59:27.050Z,14.50
2019-05-22T23:01:57.319Z,14.33
2019-05-22T23:04:27.050Z,14.27
2019-05-22T23:06:58.483Z,13.83
2019-05-22T23:09:27.664Z,14.17
2019-05-22T23:11:56.981Z,13.73
2019-05-22T23:14:27.636Z,12.90
2019-05-22T23:16:56.118Z,13.93
2019-05-22T23:19:34.294Z,13.67
2019-05-22T23:22:03.202Z,12.93
2019-05-22T23:24:32.916Z,14.07
2019-05-22T23:27:01.658Z,14.00
2019-05-22T23:29:30.824Z,14.97
2019-05-22T23:32:00.735Z,14.63
2019-05-22T23:34:29.508Z,14.10
2019-05-22T23:36:59.031Z,13.90
2019-05-22T23:39:31.715Z,14.90
2019-05-22T23:42:04.903Z,14.37
2019-05-22T23:44:35.927Z,15.50
2019-05-22T23:47:05.522Z,16.20
2019-05-22T23:49:34.903Z,15.83
2019-05-22T23:52:04.432Z,16.97
2019-05-22T23:54:32.942Z,16.17
2019-05-22T23:57:01.968Z,15.77
2019-05-22T23:59:32.852Z,16.20
